CDT,Max TemperatureF,Mean TemperatureF,Min TemperatureF,Max Dew PointF,MeanDew PointF,Min DewpointF,Max Humidity, Mean Humidity, Min Humidity, Max Sea Level PressureIn, Mean Sea Level PressureIn, Min Sea Level PressureIn, Max VisibilityMiles, Mean VisibilityMiles, Min VisibilityMiles, Max Wind SpeedMPH, Mean Wind SpeedMPH, Max Gust SpeedMPH,PrecipitationIn, CloudCover, Events, WindDirDegrees
2013-3-1,31,23,15,19,16,12,84,69,53,30.41,30.33,30.22,10,10,8,20,12,26,T,5,Snow,354
2013-3-2,40,25,9,28,17,6,92,71,50,30.40,30.26,30.06,10,8,0,17,7,21,0.00,4,Fog,181
2013-3-3,43,35,26,30,27,23,92,79,65,30.03,29.83,29.68,10,9,6,26,12,30,0.00,2,,130
2013-3-4,43,35,26,30,25,14,85,64,43,30.08,29.83,29.65,10,10,6,29,12,37,0.00,5,,2
2013-3-5,32,26,19,17,15,11,77,65,53,30.45,30.28,30.05,10,9,4,36,22,44,T,5,Snow,321
2013-3-6,38,26,14,21,16,10,84,64,44,30.48,30.36,30.23,10,10,10,17,8,22,0.00,4,,100
2013-3-7,53,38,23,27,23,19,88,62,35,30.23,30.15,30.07,10,10,10,23,14,28,0.00,0,,139
2013-3-8,52,39,26,36,30,22,85,67,49,30.18,30.02,29.84,10,9,5,24,10,32,0.01,4,Rain-Thunderstorm,123
2013-3-9,51,41,30,46,37,27,100,92,83,29.85,29.69,29.58,10,4,1,28,14,36,0.60,8,Rain-Snow-Thunderstorm,60
2013-3-10,31,25,19,27,18,13,92,85,77,30.06,29.97,29.82,10,2,0,36,27,44,0.24,8,Fog-Snow,337
2013-3-11,42,28,14,28,16,9,88,70,52,30.05,29.98,29.88,10,8,2,21,9,25,T,4,Snow,312
2013-3-12,32,27,21,23,20,17,84,71,58,30.38,30.21,30.07,10,10,10,32,17,40,0.00,6,,312
2013-3-13,41,28,15,26,20,13,92,70,48,30.44,30.36,30.21,10,10,10,20,8,24,0.00,2,,183
2013-3-14,67,49,30,40,32,23,85,57,29,30.18,30.11,30.04,10,10,10,16,8,20,0.00,0,,223
2013-3-15,59,46,33,43,38,34,85,66,47,30.00,29.83,29.75,10,9,6,29,11,32,0.00,1,,320
2013-3-16,34,28,21,31,20,16,92,72,51,30.22,30.11,29.94,10,10,6,31,15,37,T,6,Snow,2
2013-3-17,44,34,23,34,24,17,92,71,49,30.17,29.94,29.65,10,10,8,25,13,31,0.04,7,Rain-Snow,121
2013-3-18,37,31,24,36,18,9,92,64,35,30.09,29.87,29.70,10,10,8,37,19,47,T,3,,293
2013-3-19,50,33,15,20,15,11,80,53,25,30.42,30.19,30.10,10,10,10,29,11,35,T,0,,331
2013-3-20,37,25,12,12,7,2,80,55,29,30.44,30.33,30.14,10,10,10,20,9,24,0.00,0,,345
2013-3-21,29,25,20,18,15,11,84,69,53,30.11,30.01,29.95,10,8,1,15,9,17,0.04,7,Snow,115
2013-3-22,30,28,25,24,22,18,92,78,63,30.07,29.99,29.93,10,6,1,12,6,13,0.09,8,Snow,114
2013-3-23,33,29,25,29,26,22,92,81,69,30.17,30.10,30.06,10,4,0,23,9,30,0.07,8,Fog-Snow,15
2013-3-24,29,24,18,22,17,11,88,76,63,30.18,30.13,30.05,10,8,2,26,19,32,T,7,Snow,326
2013-3-25,28,25,22,21,18,15,88,78,68,30.40,30.27,30.11,10,8,2,28,17,33,T,8,Snow,328
2013-3-26,44,28,12,24,16,9,92,64,36,30.41,30.33,30.22,10,10,10,14,6,18,0.00,1,,183
2013-3-27,53,38,22,29,24,19,88,62,35,30.25,30.22,30.17,10,10,10,21,11,28,0.00,1,,137
2013-3-28,57,41,24,32,29,24,92,63,33,30.25,30.21,30.17,10,9,5,14,7,17,0.00,3,,134
2013-3-29,70,50,29,48,34,27,92,60,27,30.21,30.12,30.01,10,10,7,21,9,28,0.07,2,Rain,152
2013-3-30,64,52,39,49,44,36,100,69,37,30.03,29.96,29.93,10,7,1,29,8,33,0.08,4,Rain-Thunderstorm,302
2013-3-31,56,41,25,38,30,22,100,64,27,30.22,30.05,29.97,10,8,1,26,14,29,0.04,4,Snow,338